createdAt,value
2022-12-17T07:01:23.507Z,43.53
2022-12-17T07:04:14.258Z,43.15
2022-12-17T07:07:04.913Z,46.15
2022-12-17T07:09:55.545Z,42.50
2022-12-17T07:12:47.913Z,42.22
2022-12-17T07:15:38.518Z,43.33
2022-12-17T07:18:29.485Z,43.28
2022-12-17T07:21:20.180Z,41.58
2022-12-17T07:24:10.894Z,42.70
2022-12-17T07:27:01.736Z,42.80
2022-12-17T07:29:52.471Z,43.40
2022-12-17T07:32:43.005Z,45.33
2022-12-17T07:35:34.158Z,41.33
2022-12-17T07:38:25.051Z,43.63
2022-12-17T07:41:18.704Z,41.50
2022-12-17T07:44:09.730Z,40.40
2022-12-17T07:47:01.741Z,42.65
2022-12-17T07:49:52.475Z,41.65
2022-12-17T07:52:43.313Z,40.08
2022-12-17T07:55:34.294Z,42.03
2022-12-17T07:58:29.441Z,43.00
2022-12-17T08:01:20.876Z,43.63
2022-12-17T08:04:11.885Z,42.13
2022-12-17T08:07:08.362Z,41.45
2022-12-17T08:10:01.437Z,38.63
2022-12-17T08:12:52.581Z,39.70
2022-12-17T08:15:43.283Z,39.38
2022-12-17T08:18:34.212Z,40.22
2022-12-17T08:21:24.804Z,41.88
2022-12-17T15:32:38.257Z,52.88
2022-12-17T15:35:12.564Z,54.88
2022-12-17T15:37:45.231Z,54.40
2022-12-17T15:40:17.699Z,57.67
2022-12-17T15:43:08.521Z,55.92
2022-12-17T15:45:51.608Z,57.00
2022-12-17T15:48:23.757Z,54.90
2022-12-17T15:50:56.055Z,55.65
2022-12-17T15:53:28.143Z,54.42
2022-12-17T15:56:01.747Z,58.45
2022-12-17T15:58:33.965Z,57.35
2022-12-17T16:01:07.112Z,52.55
2022-12-17T16:03:40.114Z,47.65
2022-12-17T16:06:12.528Z,43.80
2022-12-17T16:08:44.511Z,43.83
2022-12-17T16:11:16.647Z,41.92
2022-12-17T16:13:54.404Z,43.83
2022-12-17T16:16:26.724Z,43.42
2022-12-17T16:18:58.899Z,42.35
2022-12-17T16:21:30.877Z,39.97
2022-12-17T16:24:02.964Z,40.65
2022-12-17T16:26:34.968Z,40.95
2022-12-17T16:29:07.133Z,38.45
2022-12-17T16:31:39.280Z,37.08
2022-12-17T16:34:12.601Z,39.17
2022-12-17T16:36:44.798Z,37.58
2022-12-17T16:39:18.219Z,36.70
2022-12-17T16:41:50.459Z,38.15
2022-12-17T16:44:22.979Z,36.83
